Terminal Aerodrome Forecast
Issued by NWS San Angelo, TX

Home | Current Version | Previous Version | Text Only | Print | Product List | Glossary On
Versions: 1 2 3 4 5 6 7 8 9 10 11 12
000
FTUS44 KSJT 301700 RRA
TAFSJT
TAF
KSJT 301742Z 3018/3118 08010KT P6SM OVC040
     FM310400 10010KT P6SM OVC015
     FM310700 10010KT 5SM -RA BR OVC007
     FM310900 12010KT 4SM RA BR OVC004
     FM311300 12011KT 2SM RA BR OVC004=

USA.gov is the U.S. government's official web portal to all federal, state and local government web resources and services.